Airfield :
LOGIN :

Register | Disclaimer

   EN    FR    IT 

 










Legend :    VFR   Marginal VFR   IFR   Intensive IFR   Very Intensive IFR
Visi :
Ceiling :
>= 8 km
>= 3000ft
5 to 8 km
1000 to 3000 ft
1500m to 5 km
500 to 1000 ft
800 to 1500m
200 to 500 ft
< 800m
< 200 ft
Symbols :   Thunderstorms  Fog  Heavy snow  Heavy precipitations  Wind > 20 kt
SIGMETs :     Misc.  Thunderstorms  Icing  Turbulence  Mountain Waves  Volcanic Ashes







- Airport Elevation : 49 ft
- IATA code : GLZ


EHGR - Gilze-Rijen Airbase

CURRENT METAR :
  • 160625Z AUTO 20007KT 160V280 9999 NCD 16/13 Q1018 BLU

EXPIRED METARs :
  • 160555Z AUTO 19006KT 150V250 9999 NCD 15/12 Q1018 BLU
  • 160525Z AUTO 20007KT 160V240 9999 NCD 14/12 Q1018 BLU
  • 160455Z AUTO 20007KT 160V230 9999 NCD 14/12 Q1018 BLU
  • 160425Z AUTO 17005KT 9999 NCD 13/12 Q1017 BLU
  • 160355Z AUTO 16004KT 9999 NCD 12/11 Q1017 BLU

Expired Forecast.
No reported NOTAMs for that airfield.



MET'MAP, your aeronautical weather chart ! - Copyright ORBIFLY December 2007 - Disclaimer

ORBIFLY MET'MAP TEAM :

Programming & Development : Alexandra Zaïnal
Concept & Development : Baudouin d'Aumeries
Co-Development & Prog : Marc-Olivier Méhu
Technical & hardware support : Manuel Goepfert

Contact : metmap@orbifly.com




SOURCES & CREDITS :

   NOAA